Time;durP1;ratioP1;P1;durP2;ratioP2;P2;SDS_P1;SDS_P2;PMS_P1;PMS_P2;Temp;Humidity;BMP_temperature;BMP_pressure;BME280_temperature;BME280_humidity;BME280_pressure;Samples;Min_cycle;Max_cycle;Signal;HPM_P1;HPM_P2
2023/04/10 00:03:12;;;;;;;35.4;21.7;;;;;;;6;84.1;99450;;;;
2023/04/10 00:13:13;;;;;;;30;19.1;;;;;;;5.9;84.9;99440;;;;
2023/04/10 00:24:12;;;;;;;30;19.1;;;;;;;5.8;85.9;99430;;;;
2023/04/10 00:35:12;;;;;;;30;19.1;;;;;;;5.8;86.5;99430;;;;
2023/04/10 00:45:12;;;;;;;36.6;23.1;;;;;;;5.7;86.4;99420;;;;
2023/04/10 00:56:12;;;;;;;36.6;23.1;;;;;;;5.7;87.2;99420;;;;
2023/04/10 01:07:14;;;;;;;36.6;23.1;;;;;;;5.7;87.5;99430;;;;
2023/04/10 01:18:12;;;;;;;40.2;23.3;;;;;;;6;88.1;99440;;;;
2023/04/10 01:29:13;;;;;;;40.2;23.3;;;;;;;6.2;88.6;99420;;;;
2023/04/10 01:39:12;;;;;;;40.2;23.3;;;;;;;6.4;88.7;99420;;;;
2023/04/10 01:49:13;;;;;;;49;27.6;;;;;;;6.6;88.7;99420;;;;
2023/04/10 02:00:13;;;;;;;49;27.6;;;;;;;6.7;88.6;99420;;;;
2023/04/10 02:11:13;;;;;;;49;27.6;;;;;;;6.9;88.3;99420;;;;
2023/04/10 02:21:13;;;;;;;44;29.2;;;;;;;7.1;88.1;99430;;;;
2023/04/10 02:32:15;;;;;;;44;29.2;;;;;;;7.2;88;99420;;;;
2023/04/10 02:43:13;;;;;;;50.9;34;;;;;;;7.3;87.9;99420;;;;
2023/04/10 02:53:13;;;;;;;50.9;34;;;;;;;7.4;87.6;99430;;;;
2023/04/10 03:03:13;;;;;;;50.9;34;;;;;;;7.4;87.7;99420;;;;
2023/04/10 03:13:13;;;;;;;53.3;34.8;;;;;;;7.4;88;99420;;;;
2023/04/10 03:24:13;;;;;;;53.3;34.8;;;;;;;7.4;88.5;99430;;;;
2023/04/10 03:35:12;;;;;;;53.3;34.8;;;;;;;7.4;89;99430;;;;
2023/04/10 03:45:13;;;;;;;60.8;41.2;;;;;;;7.3;89.5;99420;;;;
2023/04/10 03:55:17;;;;;;;60.8;41.2;;;;;;;7.3;90.1;99420;;;;
2023/04/10 04:05:13;;;;;;;60.8;41.2;;;;;;;7.3;90.3;99430;;;;
2023/04/10 04:15:13;;;;;;;73.9;45.7;;;;;;;7.3;90.5;99430;;;;
2023/04/10 04:26:13;;;;;;;73.9;45.7;;;;;;;7.3;90.9;99440;;;;
2023/04/10 04:36:13;;;;;;;73.9;45.7;;;;;;;7.3;91.1;99440;;;;
2023/04/10 04:46:13;;;;;;;71.6;48.9;;;;;;;7.3;91;99440;;;;
2023/04/10 04:57:13;;;;;;;71.6;48.9;;;;;;;7.4;91;99440;;;;
2023/04/10 05:07:13;;;;;;;71.6;48.9;;;;;;;7.4;90.8;99450;;;;
2023/04/10 05:17:13;;;;;;;76.7;48;;;;;;;7.5;90.8;99450;;;;
2023/04/10 05:28:13;;;;;;;76.7;48;;;;;;;7.4;91.2;99470;;;;
2023/04/10 05:39:14;;;;;;;76.7;48;;;;;;;7.5;91.2;99480;;;;
2023/04/10 05:50:13;;;;;;;62.7;36.5;;;;;;;7.4;91.4;99480;;;;
2023/04/10 06:00:14;;;;;;;62.7;36.5;;;;;;;7.5;91.5;99480;;;;
2023/04/10 06:10:13;;;;;;;62.7;36.5;;;;;;;7.6;91.3;99480;;;;
2023/04/10 06:20:13;;;;;;;65.3;36.4;;;;;;;7.5;91.1;99480;;;;
2023/04/10 06:31:13;;;;;;;65.3;36.4;;;;;;;7.5;91.2;99480;;;;
2023/04/10 06:41:13;;;;;;;47.1;30.9;;;;;;;7.6;91.3;99470;;;;
2023/04/10 06:51:13;;;;;;;47.1;30.9;;;;;;;7.8;91;99480;;;;
2023/04/10 07:01:13;;;;;;;47.1;30.9;;;;;;;7.8;90.7;99480;;;;
2023/04/10 07:12:13;;;;;;;52.7;34.2;;;;;;;7.8;90.3;99490;;;;
2023/04/10 07:22:13;;;;;;;52.7;34.2;;;;;;;8.1;90;99490;;;;
2023/04/10 07:33:13;;;;;;;52.7;34.2;;;;;;;8.3;89.4;99490;;;;
2023/04/10 07:43:13;;;;;;;46.9;34.1;;;;;;;8.2;89.1;99500;;;;
2023/04/10 07:53:13;;;;;;;46.9;34.1;;;;;;;8.2;89.1;99490;;;;
2023/04/10 08:03:13;;;;;;;46.9;34.1;;;;;;;8.2;89.3;99490;;;;
2023/04/10 08:14:13;;;;;;;57.1;35.7;;;;;;;8.3;89.2;99490;;;;
2023/04/10 08:25:13;;;;;;;57.1;35.7;;;;;;;8.5;89.1;99490;;;;
2023/04/10 08:35:13;;;;;;;57.1;35.7;;;;;;;8.7;88.9;99500;;;;
2023/04/10 08:45:13;;;;;;;58.4;36.4;;;;;;;8.6;88.6;99500;;;;
2023/04/10 08:55:13;;;;;;;58.4;36.4;;;;;;;8.7;88.9;99490;;;;
2023/04/10 09:06:13;;;;;;;58.4;36.4;;;;;;;8.9;88.6;99490;;;;
2023/04/10 09:17:13;;;;;;;59.7;40.8;;;;;;;9.1;88.2;99480;;;;
2023/04/10 09:27:13;;;;;;;59.7;40.8;;;;;;;9.1;88.3;99480;;;;
2023/04/10 09:38:13;;;;;;;59.7;40.8;;;;;;;9;88.7;99470;;;;
2023/04/10 09:48:13;;;;;;;75.1;50.4;;;;;;;9.5;88.3;99470;;;;
2023/04/10 09:58:13;;;;;;;75.1;50.4;;;;;;;9.8;87.1;99460;;;;
2023/04/10 10:08:13;;;;;;;75.1;50.4;;;;;;;9.7;87;99460;;;;
2023/04/10 10:19:13;;;;;;;74.8;54.7;;;;;;;10;86.4;99460;;;;
2023/04/10 10:30:13;;;;;;;74.8;54.7;;;;;;;10.3;86.3;99460;;;;
2023/04/10 10:40:13;;;;;;;74.8;54.7;;;;;;;10.4;85.7;99450;;;;
2023/04/10 10:51:13;;;;;;;84.6;58.2;;;;;;;10.5;85.3;99440;;;;
2023/04/10 11:01:13;;;;;;;84.6;58.2;;;;;;;10.6;85;99430;;;;
2023/04/10 11:11:14;;;;;;;78.1;55.3;;;;;;;10.6;85.6;99420;;;;
2023/04/10 11:22:14;;;;;;;78.1;55.3;;;;;;;11.1;84.7;99400;;;;
2023/04/10 11:32:13;;;;;;;78.1;55.3;;;;;;;11.5;82.6;99400;;;;
2023/04/10 11:42:13;;;;;;;72.8;53.3;;;;;;;11.9;82.3;99390;;;;
2023/04/10 11:52:13;;;;;;;72.8;53.3;;;;;;;12.2;81.4;99370;;;;
2023/04/10 12:02:13;;;;;;;72.8;53.3;;;;;;;12.8;79.3;99370;;;;
2023/04/10 12:13:13;;;;;;;62.9;48.2;;;;;;;13.4;77.2;99350;;;;
2023/04/10 12:24:14;;;;;;;62.9;48.2;;;;;;;13.4;76.3;99340;;;;
2023/04/10 12:34:13;;;;;;;62.9;48.2;;;;;;;13.2;76;99320;;;;
2023/04/10 12:45:14;;;;;;;66.5;49.3;;;;;;;13.4;75.6;99290;;;;
2023/04/10 12:56:13;;;;;;;66.5;49.3;;;;;;;13.6;75.8;99270;;;;
2023/04/10 13:07:13;;;;;;;66.5;49.3;;;;;;;13.9;74.7;99250;;;;
2023/04/10 13:17:13;;;;;;;63.5;47;;;;;;;14.2;73.8;99230;;;;
2023/04/10 13:28:14;;;;;;;63.5;47;;;;;;;14.4;74.6;99230;;;;
2023/04/10 13:38:13;;;;;;;63.5;47;;;;;;;14.4;73;99210;;;;
2023/04/10 13:48:15;;;;;;;57.8;45.3;;;;;;;14.7;72.3;99200;;;;
2023/04/10 13:58:13;;;;;;;57.8;45.3;;;;;;;14.5;73.2;99180;;;;
2023/04/10 14:08:14;;;;;;;57.8;45.3;;;;;;;14.5;72.2;99160;;;;
2023/04/10 14:18:16;;;;;;;58.8;47.6;;;;;;;14.6;73.2;99160;;;;
2023/04/10 14:29:13;;;;;;;58.8;47.6;;;;;;;15;70.8;99150;;;;
2023/04/10 14:40:13;;;;;;;58.8;47.6;;;;;;;15;72.2;99150;;;;
2023/04/10 14:50:13;;;;;;;56.3;45.6;;;;;;;15.3;70.3;99110;;;;
2023/04/10 15:00:13;;;;;;;56.3;45.6;;;;;;;16.1;69.2;99110;;;;
2023/04/10 15:11:13;;;;;;;58.6;44.4;;;;;;;17.5;64.9;99130;;;;
2023/04/10 15:22:13;;;;;;;58.6;44.4;;;;;;;15.6;67.6;99160;;;;
2023/04/10 15:33:13;;;;;;;58.6;44.4;;;;;;;14.2;74.5;99160;;;;
2023/04/10 15:44:13;;;;;;;60;48;;;;;;;13.1;79.3;99140;;;;
2023/04/10 15:54:13;;;;;;;60;48;;;;;;;12.4;81.2;99100;;;;
2023/04/10 16:04:13;;;;;;;60;48;;;;;;;12.3;82.3;99090;;;;
2023/04/10 16:14:13;;;;;;;58;46.4;;;;;;;12.3;82.2;99090;;;;
2023/04/10 16:25:13;;;;;;;58;46.4;;;;;;;12.3;81.9;99090;;;;
2023/04/10 16:35:13;;;;;;;58;46.4;;;;;;;12.1;82.1;99090;;;;
2023/04/10 16:45:13;;;;;;;58.3;42.5;;;;;;;11.7;83.2;99100;;;;
2023/04/10 16:55:13;;;;;;;58.3;42.5;;;;;;;11.4;84.1;99080;;;;
2023/04/10 17:06:13;;;;;;;58.3;42.5;;;;;;;11;86.2;99090;;;;
2023/04/10 17:16:13;;;;;;;51.7;38.4;;;;;;;11;86.1;99090;;;;
2023/04/10 17:27:13;;;;;;;51.7;38.4;;;;;;;10.9;86;99090;;;;
2023/04/10 17:37:13;;;;;;;51.7;38.4;;;;;;;10.7;86.1;99090;;;;
2023/04/10 17:48:13;;;;;;;45.5;32.6;;;;;;;10.7;86.1;99100;;;;
2023/04/10 17:59:13;;;;;;;45.5;32.6;;;;;;;10.7;86.2;99110;;;;
2023/04/10 18:09:13;;;;;;;45.5;32.6;;;;;;;9.7;82.4;99190;;;;
2023/04/10 18:20:13;;;;;;;33.4;24.3;;;;;;;8.6;83.4;99190;;;;
2023/04/10 18:30:13;;;;;;;33.4;24.3;;;;;;;8.5;84.2;99170;;;;
2023/04/10 18:41:13;;;;;;;7.2;3.5;;;;;;;8.6;84.3;99180;;;;
2023/04/10 18:51:13;;;;;;;7.2;3.5;;;;;;;8.6;84.5;99170;;;;
2023/04/10 19:01:13;;;;;;;7.2;3.5;;;;;;;8.4;85.1;99170;;;;
2023/04/10 19:12:13;;;;;;;18.4;8.4;;;;;;;8.2;85.7;99140;;;;
2023/04/10 19:22:15;;;;;;;18.4;8.4;;;;;;;7.9;87.2;99110;;;;
2023/04/10 19:32:13;;;;;;;18.4;8.4;;;;;;;7.8;87.5;99090;;;;
2023/04/10 19:43:13;;;;;;;7.4;4.1;;;;;;;7.5;87.7;99080;;;;
2023/04/10 19:53:14;;;;;;;7.4;4.1;;;;;;;7.4;87.8;99080;;;;
2023/04/10 20:04:13;;;;;;;7.4;4.1;;;;;;;7.2;87.6;99060;;;;
2023/04/10 20:14:13;;;;;;;9.4;4.5;;;;;;;7;87.7;99070;;;;
2023/04/10 20:24:13;;;;;;;9.4;4.5;;;;;;;6.9;87.6;99060;;;;
2023/04/10 20:34:13;;;;;;;9.4;4.5;;;;;;;6.7;87.4;99040;;;;
2023/04/10 20:45:13;;;;;;;6.8;3.6;;;;;;;6.5;87.8;99030;;;;
2023/04/10 20:55:13;;;;;;;6.8;3.6;;;;;;;6.3;87.7;99010;;;;
2023/04/10 21:06:14;;;;;;;6.8;3.6;;;;;;;6.1;87.6;99010;;;;
2023/04/10 21:16:13;;;;;;;8.9;3.9;;;;;;;5.9;87.7;98990;;;;
2023/04/10 21:27:13;;;;;;;8.9;3.9;;;;;;;5.7;87.8;98990;;;;
2023/04/10 21:37:13;;;;;;;8.9;3.9;;;;;;;5.5;88;98990;;;;
2023/04/10 21:48:13;;;;;;;8.8;4.9;;;;;;;5.3;88.1;99000;;;;
2023/04/10 21:58:13;;;;;;;8.8;4.9;;;;;;;5.2;88.3;98970;;;;
2023/04/10 22:08:13;;;;;;;8.8;4.9;;;;;;;5.2;88.6;98970;;;;
2023/04/10 22:19:13;;;;;;;9.2;5;;;;;;;5.2;88.9;98960;;;;
2023/04/10 22:29:13;;;;;;;9.2;5;;;;;;;5.2;89.6;98960;;;;
2023/04/10 22:39:14;;;;;;;9.2;5;;;;;;;5.2;89.8;98960;;;;
2023/04/10 22:50:13;;;;;;;9.7;5.4;;;;;;;5.1;90;98960;;;;
2023/04/10 23:00:13;;;;;;;9.7;5.4;;;;;;;5.1;90.1;98950;;;;
2023/04/10 23:11:13;;;;;;;9.2;4.9;;;;;;;5.2;90.3;98940;;;;
2023/04/10 23:21:13;;;;;;;9.2;4.9;;;;;;;5.2;90.4;98930;;;;
2023/04/10 23:32:13;;;;;;;9.2;4.9;;;;;;;5;90.1;98910;;;;
2023/04/10 23:42:13;;;;;;;9.2;5.1;;;;;;;4.8;89.6;98890;;;;
2023/04/10 23:53:13;;;;;;;9.2;5.1;;;;;;;4.6;89.4;98860;;;;
